createdAt,value
2022-08-14T00:00:45.589Z,3.83
2022-08-14T00:03:21.437Z,4.25
2022-08-14T00:06:00.497Z,3.95
2022-08-14T00:08:45.019Z,4.10
2022-08-14T00:11:15.873Z,3.85
2022-08-14T00:13:51.757Z,3.40
2022-08-14T00:16:41.627Z,3.40
2022-08-14T00:19:19.630Z,3.70
2022-08-14T00:21:49.916Z,3.47
2022-08-14T00:24:28.223Z,3.60
2022-08-14T00:27:02.003Z,3.30
2022-08-14T00:29:39.909Z,3.65
2022-08-14T00:32:53.057Z,3.17
2022-08-14T00:35:01.517Z,3.72
2022-08-14T00:37:30.624Z,3.50
2022-08-14T00:40:01.745Z,2.88
2022-08-14T00:42:55.627Z,3.30
2022-08-14T00:45:25.577Z,3.40
2022-08-14T00:48:00.156Z,2.83
2022-08-14T00:50:31.321Z,3.40
2022-08-14T00:53:02.266Z,3.00
2022-08-14T00:55:32.175Z,2.70
2022-08-14T00:58:32.496Z,3.00
2022-08-14T01:01:03.492Z,3.10
2022-08-14T01:03:36.328Z,3.10
2022-08-14T01:06:07.121Z,3.00
2022-08-14T01:08:57.837Z,3.03
2022-08-14T01:11:35.353Z,2.90
2022-08-14T01:14:26.015Z,2.78
2022-08-14T01:16:55.916Z,3.00
2022-08-14T01:19:43.340Z,3.05
2022-08-14T01:22:18.653Z,2.95
2022-08-14T01:24:48.858Z,3.13
2022-08-14T01:27:22.392Z,3.03
2022-08-14T01:30:01.221Z,2.85
2022-08-14T01:32:50.978Z,3.03
2022-08-14T01:36:03.881Z,3.30
2022-08-14T01:38:15.313Z,3.00
2022-08-14T01:40:48.966Z,2.70
2022-08-14T01:43:22.192Z,2.92
2022-08-14T01:46:06.064Z,3.28
2022-08-14T01:48:37.092Z,2.70
2022-08-14T01:51:18.742Z,3.10
2022-08-14T01:53:55.508Z,2.63
2022-08-14T01:56:36.982Z,3.00
2022-08-14T01:59:10.255Z,2.90
2022-08-14T02:01:58.053Z,3.10
2022-08-14T02:04:54.970Z,2.75
2022-08-14T02:07:44.654Z,2.85
2022-08-14T02:10:12.877Z,2.95
2022-08-14T02:12:54.168Z,2.50
2022-08-14T02:15:26.691Z,3.50
2022-08-14T02:17:55.755Z,2.72
2022-08-14T02:20:25.296Z,2.97
2022-08-14T02:22:55.063Z,3.05
2022-08-14T02:25:29.965Z,3.20
2022-08-14T02:28:23.309Z,3.28
2022-08-14T02:30:52.635Z,3.90
2022-08-14T02:33:23.448Z,3.03
2022-08-14T02:35:53.313Z,2.88
2022-08-14T02:38:35.160Z,2.80
2022-08-14T02:41:09.024Z,2.90
2022-08-14T02:43:46.444Z,3.08
2022-08-14T02:46:20.193Z,2.90
2022-08-14T02:49:03.452Z,2.95
2022-08-14T02:51:36.624Z,3.35
2022-08-14T02:54:07.441Z,3.10
2022-08-14T02:57:15.505Z,4.25
2022-08-14T02:59:33.928Z,4.72
2022-08-14T03:02:04.470Z,4.43
2022-08-14T03:04:34.483Z,4.30
2022-08-14T03:07:07.734Z,3.90
2022-08-14T03:10:25.072Z,4.32
2022-08-14T03:12:32.246Z,3.60
2022-08-14T03:15:05.344Z,3.50
2022-08-14T03:17:56.149Z,2.67
2022-08-14T03:20:23.814Z,2.80
2022-08-14T03:22:53.731Z,3.10
2022-08-14T03:25:23.327Z,2.90
2022-08-14T03:27:58.678Z,2.90
2022-08-14T03:30:39.554Z,3.03
2022-08-14T03:33:12.052Z,3.22
2022-08-14T03:35:59.915Z,2.72
2022-08-14T03:39:13.230Z,2.97
2022-08-14T03:41:23.218Z,3.10
2022-08-14T03:43:57.806Z,2.80
2022-08-14T03:46:54.536Z,3.03
2022-08-14T03:49:28.398Z,3.10
2022-08-14T03:52:01.335Z,3.63
2022-08-14T03:54:30.765Z,3.75
2022-08-14T03:57:02.420Z,3.90
2022-08-14T03:59:35.423Z,3.53
2022-08-14T04:02:09.610Z,3.60
2022-08-14T04:04:54.117Z,3.50
2022-08-14T04:07:23.909Z,3.97
2022-08-14T04:09:53.658Z,4.35
2022-08-14T04:12:26.422Z,3.90
2022-08-14T04:14:57.539Z,4.13
2022-08-14T04:17:29.628Z,4.07
2022-08-14T04:20:06.961Z,3.97
2022-08-14T04:22:39.234Z,3.70
2022-08-14T04:25:10.786Z,3.80
2022-08-14T04:28:01.848Z,3.72
2022-08-14T04:30:33.100Z,3.78
2022-08-14T04:33:07.660Z,3.75
2022-08-14T04:35:56.125Z,3.80
2022-08-14T04:38:43.317Z,3.67
2022-08-14T04:41:33.434Z,3.72
2022-08-14T04:44:02.720Z,3.80
2022-08-14T04:46:56.280Z,4.10
2022-08-14T04:49:24.686Z,3.65
2022-08-14T04:51:55.849Z,3.80
2022-08-14T04:54:27.077Z,3.70
2022-08-14T04:56:57.184Z,3.40
2022-08-14T04:59:26.814Z,3.35
2022-08-14T05:01:58.518Z,3.40
2022-08-14T05:04:27.505Z,3.70
2022-08-14T05:06:56.696Z,3.72
2022-08-14T05:09:28.969Z,3.33
2022-08-14T05:13:01.052Z,3.67
2022-08-14T05:14:55.174Z,3.40
2022-08-14T05:17:34.772Z,3.70
2022-08-14T05:21:04.474Z,3.85
2022-08-14T05:23:03.871Z,3.45
2022-08-14T05:25:34.178Z,3.42
2022-08-14T05:28:14.175Z,3.70
2022-08-14T05:30:46.822Z,4.43
2022-08-14T05:33:19.958Z,3.67
2022-08-14T05:35:51.138Z,3.13
2022-08-14T05:38:31.693Z,3.45
2022-08-14T05:41:01.234Z,3.20
2022-08-14T05:43:40.610Z,3.17
2022-08-14T05:46:12.387Z,3.15
2022-08-14T05:48:48.681Z,3.00
2022-08-14T05:51:18.256Z,3.33
2022-08-14T05:53:56.940Z,3.22
2022-08-14T05:56:31.353Z,3.03
2022-08-14T05:59:01.398Z,3.00
2022-08-14T06:01:31.314Z,2.95
2022-08-14T06:04:04.442Z,3.15
2022-08-14T06:06:38.345Z,2.92
2022-08-14T06:09:09.791Z,2.50
2022-08-14T06:11:40.661Z,3.33
2022-08-14T06:14:20.956Z,2.83
2022-08-14T06:16:51.962Z,2.78
2022-08-14T06:19:23.798Z,2.70
2022-08-14T06:21:58.902Z,2.65
2022-08-14T06:24:30.610Z,2.90
2022-08-14T06:27:04.699Z,3.10
2022-08-14T06:29:35.369Z,2.95
2022-08-14T06:32:37.916Z,3.15
2022-08-14T06:35:04.693Z,3.00
2022-08-14T06:37:44.149Z,3.20
2022-08-14T06:40:26.762Z,3.05
2022-08-14T06:43:00.361Z,3.22
2022-08-14T06:45:32.586Z,2.90
2022-08-14T06:48:03.287Z,3.17
2022-08-14T06:50:36.828Z,3.28
2022-08-14T06:53:05.697Z,3.40
2022-08-14T06:55:37.156Z,3.47
2022-08-14T06:58:28.686Z,3.53
2022-08-14T07:01:23.053Z,3.08
2022-08-14T07:04:23.037Z,3.00
2022-08-14T07:06:54.810Z,3.10
2022-08-14T07:09:28.161Z,3.40
2022-08-14T07:12:09.947Z,3.50
2022-08-14T07:15:01.362Z,2.97
2022-08-14T07:17:31.934Z,3.17
2022-08-14T07:20:03.438Z,3.33
2022-08-14T07:22:49.931Z,2.90
2022-08-14T07:25:22.915Z,2.90
2022-08-14T07:28:01.725Z,2.97
2022-08-14T07:30:34.245Z,2.80
2022-08-14T07:33:04.823Z,2.65
2022-08-14T07:35:42.825Z,2.90
2022-08-14T07:38:25.262Z,2.88
2022-08-14T07:40:54.518Z,2.75
2022-08-14T07:43:25.191Z,2.80
2022-08-14T07:45:55.281Z,2.92
2022-08-14T07:48:25.294Z,2.60
2022-08-14T07:51:03.027Z,3.08
2022-08-14T07:53:41.295Z,2.80
2022-08-14T07:56:44.295Z,3.00
2022-08-14T07:59:01.150Z,2.63
2022-08-14T08:01:31.090Z,2.50
2022-08-14T08:04:01.470Z,2.40
2022-08-14T08:06:32.611Z,2.80
2022-08-14T08:09:04.882Z,2.85
2022-08-14T08:11:37.686Z,2.72
2022-08-14T08:14:16.354Z,2.83
2022-08-14T08:16:51.223Z,3.00
2022-08-14T08:19:20.527Z,2.70
2022-08-14T08:21:50.291Z,2.80
2022-08-14T08:24:23.465Z,2.60
2022-08-14T08:26:52.495Z,2.92
2022-08-14T08:29:28.696Z,3.25
2022-08-14T08:32:01.771Z,3.40
2022-08-14T08:34:46.630Z,2.97
2022-08-14T08:37:16.503Z,3.15
2022-08-14T08:40:01.409Z,2.85
2022-08-14T08:42:38.710Z,2.65
2022-08-14T08:45:17.586Z,2.65
2022-08-14T08:47:48.677Z,2.80
2022-08-14T08:50:31.726Z,2.78
2022-08-14T08:53:02.610Z,2.70
2022-08-14T08:55:39.025Z,2.75
2022-08-14T08:58:16.007Z,2.80
2022-08-14T09:00:49.854Z,3.00
2022-08-14T09:03:27.437Z,2.40
2022-08-14T09:05:59.238Z,2.90
2022-08-14T09:08:32.602Z,2.83
2022-08-14T09:11:18.477Z,2.63
2022-08-14T09:13:51.786Z,2.70
2022-08-14T09:16:25.919Z,2.42
2022-08-14T09:18:56.078Z,2.90
2022-08-14T09:21:30.890Z,3.17
2022-08-14T09:24:27.951Z,2.60
2022-08-14T09:26:52.055Z,3.08
2022-08-14T09:29:23.559Z,2.80
2022-08-14T09:31:57.742Z,2.88
2022-08-14T09:34:58.359Z,2.45
2022-08-14T09:37:42.310Z,2.50
2022-08-14T09:40:22.633Z,2.90
2022-08-14T09:43:05.114Z,2.80
2022-08-14T09:45:52.489Z,2.58
2022-08-14T09:48:27.564Z,2.47
2022-08-14T09:54:12.685Z,2.17
2022-08-14T09:56:31.764Z,2.45
2022-08-14T09:59:15.449Z,2.83
2022-08-14T10:01:52.897Z,2.90
2022-08-14T10:04:33.603Z,2.65
2022-08-14T10:07:05.597Z,2.63
2022-08-14T10:09:35.376Z,2.72
2022-08-14T10:12:16.441Z,2.60
2022-08-14T10:14:53.291Z,2.78
2022-08-14T10:17:33.108Z,2.40
2022-08-14T10:20:40.414Z,2.97
2022-08-14T10:23:16.314Z,2.70
2022-08-14T10:25:50.449Z,2.40
2022-08-14T10:28:51.550Z,2.40
2022-08-14T10:31:25.524Z,2.63
2022-08-14T10:34:05.154Z,2.92
2022-08-14T10:36:45.694Z,2.63
2022-08-14T10:39:19.776Z,2.60
2022-08-14T10:41:54.132Z,2.40
2022-08-14T10:44:29.536Z,2.72
2022-08-14T10:47:39.478Z,2.58
2022-08-14T10:50:00.245Z,2.50
2022-08-14T10:52:33.918Z,2.42
2022-08-14T10:55:14.243Z,2.80
2022-08-14T10:57:51.825Z,2.70
2022-08-14T11:00:30.166Z,2.20
2022-08-14T11:03:09.948Z,2.60
2022-08-14T11:05:42.938Z,2.30
2022-08-14T11:08:13.116Z,2.60
2022-08-14T11:10:46.627Z,2.15
2022-08-14T11:13:24.010Z,2.30
2022-08-14T11:15:53.818Z,2.22
2022-08-14T11:18:32.396Z,2.40
2022-08-14T11:21:08.329Z,2.30
2022-08-14T11:23:41.320Z,2.08
2022-08-14T11:26:14.284Z,2.10
2022-08-14T11:28:49.839Z,2.10
2022-08-14T11:31:22.186Z,2.20
2022-08-14T11:33:58.359Z,2.40
2022-08-14T11:37:02.773Z,2.20
2022-08-14T11:39:34.441Z,2.10
2022-08-14T11:42:07.723Z,2.28
2022-08-14T11:45:00.148Z,2.33
2022-08-14T11:47:35.478Z,1.90
2022-08-14T11:50:25.078Z,2.33
2022-08-14T11:53:05.026Z,1.95
2022-08-14T11:55:38.449Z,2.40
2022-08-14T11:58:23.668Z,1.92
2022-08-14T12:00:57.365Z,2.05
2022-08-14T12:03:51.178Z,2.10
2022-08-14T12:06:28.563Z,2.13
2022-08-14T12:09:08.902Z,2.55
2022-08-14T12:11:46.774Z,2.08
2022-08-14T12:14:30.510Z,2.10
2022-08-14T12:17:12.648Z,2.00
2022-08-14T12:19:53.965Z,1.90
2022-08-14T12:22:42.163Z,2.10
2022-08-14T12:25:14.251Z,1.90
2022-08-14T12:27:46.697Z,2.10
2022-08-14T12:30:37.745Z,2.00
2022-08-14T12:33:24.087Z,2.00
2022-08-14T12:35:57.553Z,1.80
2022-08-14T12:38:36.686Z,1.92
2022-08-14T12:41:11.122Z,2.03
2022-08-14T12:43:51.815Z,1.83
2022-08-14T12:46:29.329Z,2.20
2022-08-14T12:49:02.533Z,2.10
2022-08-14T12:51:32.639Z,1.95
2022-08-14T12:54:26.088Z,2.05
2022-08-14T12:57:06.629Z,1.90
2022-08-14T12:59:42.740Z,2.00
2022-08-14T13:02:26.021Z,1.92
2022-08-14T13:04:57.031Z,2.08
2022-08-14T13:07:32.800Z,1.90
2022-08-14T13:10:45.799Z,1.92
2022-08-14T13:13:13.278Z,1.90
2022-08-14T13:15:46.665Z,2.00
2022-08-14T13:18:18.242Z,1.80
2022-08-14T13:20:49.512Z,2.10
2022-08-14T13:23:30.487Z,2.13
2022-08-14T13:26:03.006Z,2.10
2022-08-14T13:28:34.091Z,1.73
2022-08-14T13:31:11.089Z,1.90
2022-08-14T13:33:41.452Z,2.13
2022-08-14T13:36:23.954Z,2.15
2022-08-14T13:39:01.836Z,2.00
2022-08-14T13:41:36.202Z,2.15
2022-08-14T13:44:13.678Z,2.20
2022-08-14T13:46:44.571Z,2.03
2022-08-14T13:49:18.342Z,2.00
2022-08-14T13:51:50.724Z,2.10
2022-08-14T13:54:22.795Z,2.15
2022-08-14T13:56:53.923Z,2.25
2022-08-14T13:59:38.042Z,1.90
2022-08-14T14:02:09.599Z,1.80
2022-08-14T14:04:42.214Z,1.98
2022-08-14T14:07:14.255Z,2.15
2022-08-14T14:09:52.765Z,2.15
2022-08-14T14:12:38.354Z,1.88
2022-08-14T14:15:12.555Z,1.92
2022-08-14T14:17:44.945Z,2.03
2022-08-14T14:20:34.492Z,2.10
2022-08-14T14:23:11.991Z,2.60
2022-08-14T14:25:51.156Z,2.63
2022-08-14T14:28:31.337Z,2.22
2022-08-14T14:31:06.611Z,2.17
2022-08-14T14:33:47.614Z,2.10
2022-08-14T14:36:21.618Z,1.80
2022-08-14T14:38:55.136Z,2.17
2022-08-14T14:41:26.604Z,2.17
2022-08-14T14:44:13.418Z,1.98
2022-08-14T14:46:51.131Z,2.10
2022-08-14T14:49:31.929Z,2.10
2022-08-14T14:52:23.418Z,1.90
2022-08-14T14:54:58.854Z,2.08
2022-08-14T14:57:34.947Z,2.00
2022-08-14T15:00:12.720Z,2.10
2022-08-14T15:02:43.581Z,2.00
2022-08-14T15:05:14.276Z,1.83
2022-08-14T15:07:43.674Z,2.30
2022-08-14T15:10:28.119Z,2.00
2022-08-14T15:13:04.459Z,2.22
2022-08-14T15:15:37.189Z,2.50
2022-08-14T15:18:14.945Z,2.17
2022-08-14T15:20:58.279Z,1.80
2022-08-14T15:23:43.496Z,1.70
2022-08-14T15:26:23.966Z,2.10
2022-08-14T15:29:02.180Z,2.00
2022-08-14T15:31:36.457Z,2.10
2022-08-14T15:34:40.788Z,2.00
2022-08-14T15:37:03.432Z,2.00
2022-08-14T15:39:35.761Z,2.13
2022-08-14T15:42:14.307Z,2.00
2022-08-14T15:44:56.761Z,2.30
2022-08-14T15:47:29.516Z,1.90
2022-08-14T15:50:00.619Z,2.05
2022-08-14T15:52:35.061Z,1.80
2022-08-14T15:55:06.822Z,1.83
2022-08-14T15:57:37.136Z,1.98
2022-08-14T16:00:44.452Z,2.08
2022-08-14T16:03:18.331Z,1.92
2022-08-14T16:05:57.134Z,1.90
2022-08-14T16:08:28.808Z,1.83
2022-08-14T16:11:01.209Z,1.88
2022-08-14T16:13:39.344Z,1.98
2022-08-14T16:16:48.946Z,2.35
2022-08-14T16:19:10.206Z,2.30
2022-08-14T16:22:02.486Z,2.13
2022-08-14T16:24:59.875Z,2.40
2022-08-14T16:27:37.891Z,2.28
2022-08-14T16:30:25.099Z,2.70
2022-08-14T16:32:57.676Z,2.58
2022-08-14T16:35:42.593Z,2.80
2022-08-14T16:38:46.356Z,2.65
2022-08-14T16:41:22.847Z,2.50
2022-08-14T16:43:59.210Z,2.67
2022-08-14T16:46:32.519Z,2.53
2022-08-14T16:49:02.683Z,2.70
2022-08-14T16:51:34.952Z,3.00
2022-08-14T16:54:20.757Z,2.47
2022-08-14T16:57:18.553Z,2.78
2022-08-14T16:59:57.230Z,2.60
2022-08-14T17:02:39.139Z,3.00
2022-08-14T17:05:22.659Z,3.08
2022-08-14T17:08:32.562Z,2.67
2022-08-14T17:11:10.718Z,2.63
2022-08-14T17:13:57.854Z,2.50
2022-08-14T17:16:35.954Z,2.60
2022-08-14T17:19:17.487Z,2.25
2022-08-14T17:21:50.349Z,2.70
2022-08-14T17:24:57.979Z,2.58
2022-08-14T17:27:18.180Z,2.53
2022-08-14T17:29:56.414Z,2.35
2022-08-14T17:32:56.603Z,2.75
2022-08-14T17:35:57.419Z,2.60
2022-08-14T17:38:33.669Z,2.70
2022-08-14T17:41:23.651Z,2.35
2022-08-14T17:46:38.080Z,2.70
2022-08-14T17:49:18.078Z,2.88
2022-08-14T17:52:07.762Z,2.85
2022-08-14T17:54:59.059Z,3.08
2022-08-14T17:57:35.397Z,3.00
2022-08-14T18:00:12.818Z,2.90
2022-08-14T18:02:51.269Z,2.63
2022-08-14T18:06:08.486Z,2.75
2022-08-14T18:08:33.757Z,3.20
2022-08-14T18:11:02.328Z,3.03
2022-08-14T18:13:51.259Z,3.00
2022-08-14T18:16:22.490Z,2.78
2022-08-14T18:18:53.106Z,2.85
2022-08-14T18:21:23.984Z,2.97
2022-08-14T18:24:28.120Z,2.90
2022-08-14T18:27:08.795Z,3.40
2022-08-14T18:29:55.235Z,3.20
2022-08-14T18:32:54.874Z,3.00
2022-08-14T18:35:46.188Z,3.28
2022-08-14T18:38:55.101Z,3.40
2022-08-14T18:41:36.140Z,2.90
2022-08-14T18:44:12.426Z,2.63
2022-08-14T18:47:17.946Z,3.40
2022-08-14T18:50:26.237Z,3.28
2022-08-14T18:53:07.366Z,3.17
2022-08-14T18:55:53.845Z,3.03
2022-08-14T18:58:31.514Z,3.08
2022-08-14T19:01:06.336Z,3.28
2022-08-14T19:03:57.385Z,3.30
2022-08-14T19:06:56.155Z,3.25
2022-08-14T19:09:53.625Z,4.20
2022-08-14T19:13:05.140Z,3.40
2022-08-14T19:15:44.062Z,2.90
2022-08-14T19:18:29.162Z,3.83
2022-08-14T19:20:59.875Z,3.22
2022-08-14T19:23:42.824Z,3.50
2022-08-14T19:26:36.633Z,4.38
2022-08-14T19:29:36.052Z,4.20
2022-08-14T19:32:28.435Z,4.32
2022-08-14T19:35:02.365Z,4.38
2022-08-14T19:37:52.101Z,3.90
2022-08-14T19:40:34.250Z,4.35
2022-08-14T19:43:06.799Z,3.60
2022-08-14T19:45:39.627Z,3.40
2022-08-14T19:48:16.110Z,3.78
2022-08-14T19:50:47.103Z,4.13
2022-08-14T19:53:17.173Z,3.70
2022-08-14T19:56:01.598Z,3.65
2022-08-14T19:58:54.495Z,4.05
2022-08-14T20:01:36.612Z,4.10
2022-08-14T20:04:46.038Z,3.75
2022-08-14T20:07:04.365Z,4.20
2022-08-14T20:11:08.490Z,4.03
2022-08-14T20:12:36.780Z,3.50
2022-08-14T20:15:46.823Z,4.25
2022-08-14T20:18:32.932Z,3.80
2022-08-14T20:21:06.307Z,4.05
2022-08-14T20:23:38.283Z,4.30
2022-08-14T20:26:30.535Z,3.70
2022-08-14T20:29:04.667Z,4.35
2022-08-14T20:31:38.544Z,4.05
2022-08-14T20:34:24.202Z,3.90
2022-08-14T20:37:09.838Z,3.75
2022-08-14T20:39:53.604Z,3.72
2022-08-14T20:42:43.609Z,3.55
2022-08-14T20:45:24.885Z,3.47
2022-08-14T20:48:01.417Z,3.25
2022-08-14T20:50:32.070Z,4.45
2022-08-14T20:53:06.000Z,4.00
2022-08-14T20:55:41.540Z,3.75
2022-08-14T20:58:41.839Z,3.65
2022-08-14T21:01:36.016Z,3.60
2022-08-14T21:04:21.167Z,3.65
2022-08-14T21:07:24.551Z,3.75
2022-08-14T21:10:06.420Z,3.88
2022-08-14T21:12:35.817Z,3.60
2022-08-14T21:15:10.191Z,3.10
2022-08-14T21:17:43.372Z,3.25
2022-08-14T21:20:25.937Z,3.45
2022-08-14T21:23:00.551Z,3.60
2022-08-14T21:25:31.496Z,3.65
2022-08-14T21:28:04.908Z,4.10
2022-08-14T21:30:46.597Z,4.07
2022-08-14T21:33:24.791Z,3.65
2022-08-14T21:35:55.981Z,3.42
2022-08-14T21:38:33.695Z,3.95
2022-08-14T21:41:43.131Z,3.72
2022-08-14T21:44:17.372Z,3.75
2022-08-14T21:46:53.321Z,3.85
2022-08-14T21:49:33.737Z,4.20
2022-08-14T21:52:51.079Z,4.32
2022-08-14T21:55:09.320Z,4.07
2022-08-14T21:58:46.214Z,4.65
2022-08-14T22:00:30.570Z,4.35
2022-08-14T22:03:09.074Z,4.70
2022-08-14T22:05:42.093Z,6.13
2022-08-14T22:08:14.045Z,5.70
2022-08-14T22:10:46.482Z,5.20
2022-08-14T22:13:16.805Z,4.65
2022-08-14T22:15:50.018Z,3.75
2022-08-14T22:18:21.169Z,5.28
2022-08-14T22:20:56.551Z,4.95
2022-08-14T22:23:27.138Z,4.32
2022-08-14T22:25:57.001Z,4.13
2022-08-14T22:28:33.052Z,3.45
2022-08-14T22:31:10.332Z,3.22
2022-08-14T22:33:42.894Z,3.70
2022-08-14T22:36:34.194Z,3.70
2022-08-14T22:39:11.438Z,3.40
2022-08-14T22:41:42.800Z,3.20
2022-08-14T22:44:15.179Z,3.20
2022-08-14T22:46:45.308Z,3.42
2022-08-14T22:49:16.830Z,3.65
2022-08-14T22:52:31.719Z,3.78
2022-08-14T22:54:58.842Z,3.20
2022-08-14T22:57:37.825Z,3.47
2022-08-14T23:00:15.124Z,3.40
2022-08-14T23:02:47.038Z,3.45
2022-08-14T23:05:38.844Z,3.20
2022-08-14T23:08:57.600Z,3.60
2022-08-14T23:11:03.052Z,3.63
2022-08-14T23:13:32.658Z,3.72
2022-08-14T23:16:02.148Z,3.63
2022-08-14T23:18:32.269Z,3.67
2022-08-14T23:21:01.571Z,3.85
2022-08-14T23:23:31.876Z,3.55
2022-08-14T23:26:49.212Z,3.50
2022-08-14T23:28:57.192Z,3.72
2022-08-14T23:31:35.878Z,3.50
2022-08-14T23:34:06.592Z,3.33
2022-08-14T23:36:54.428Z,3.28
2022-08-14T23:39:30.540Z,3.20
2022-08-14T23:42:04.582Z,3.40
2022-08-14T23:44:37.881Z,3.17
2022-08-14T23:47:12.117Z,3.10
2022-08-14T23:50:03.409Z,4.20
2022-08-14T23:53:06.331Z,3.70
2022-08-14T23:55:35.214Z,3.60
2022-08-14T23:58:04.075Z,3.60
